Time;durP1;ratioP1;P1;durP2;ratioP2;P2;SDS_P1;SDS_P2;PMS_P1;PMS_P2;Temp;Humidity;BMP_temperature;BMP_pressure;BME280_temperature;BME280_humidity;BME280_pressure;Samples;Min_cycle;Max_cycle;Signal;HPM_P1;HPM_P2
2022/10/17 00:02:13;;;;;;;;;;;;;;;4.19;62.23;102756.70;1689230;83;25778;-58
2022/10/17 00:04:40;;;;;;;;;;;;;;;4.22;62.12;102755.27;1671746;83;25761;-58
2022/10/17 00:07:06;;;;;;;;;;;;;;;4.27;62.02;102755.60;1713332;83;25796;-58
2022/10/17 00:09:32;;;;;;;;;;;;;;;4.26;61.83;102754.71;1718071;83;25761;-58
2022/10/17 00:11:59;;;;;;;;;;;;;;;4.21;61.76;102755.31;1699232;83;27570;-58
2022/10/17 00:14:25;;;;;;;;;;;;;;;4.21;61.87;102759.31;1695326;83;25914;-58
2022/10/17 00:16:52;;;;;;;;;;;;;;;4.24;61.95;102752.58;1697018;83;25808;-58
2022/10/17 00:19:19;;;;;;;;;;;;;;;4.23;61.95;102757.48;1701933;83;25743;-59
2022/10/17 00:21:48;;;;;;;;;;;;;;;4.23;61.80;102760.16;1705539;83;25697;-59
2022/10/17 00:24:14;;;;;;;;;;;;;;;4.23;61.80;102762.34;1683061;82;27549;-59
2022/10/17 00:26:41;;;;;;;;;;;;;;;4.21;61.77;102758.84;1727328;83;25789;-58
2022/10/17 00:29:07;;;;;;;;;;;;;;;4.20;61.56;102760.23;1726637;83;25724;-59
2022/10/17 00:31:34;;;;;;;;;;;;;;;4.16;61.38;102761.26;1727174;82;25955;-58
2022/10/17 00:34:01;;;;;;;;;;;;;;;4.12;61.52;102760.48;1727967;83;25760;-59
2022/10/17 00:36:28;;;;;;;;;;;;;;;4.05;61.42;102758.45;1705957;83;27556;-59
2022/10/17 00:38:57;;;;;;;;;;;;;;;3.97;61.50;102764.45;1710365;83;25727;-58
2022/10/17 00:41:28;;;;;;;;;;;;;;;3.94;61.35;102762.34;1727869;83;25732;-58
2022/10/17 00:44:00;;;;;;;;;;;;;;;3.89;61.45;102766.47;1707441;83;25862;-58
2022/10/17 00:46:29;;;;;;;;;;;;;;;3.83;61.32;102767.95;1702617;83;26123;-58
2022/10/17 00:48:59;;;;;;;;;;;;;;;3.74;61.15;102765.10;1710399;83;28277;-58
2022/10/17 00:51:32;;;;;;;;;;;;;;;3.69;61.88;102763.01;1711973;82;25704;-58
2022/10/17 00:54:00;;;;;;;;;;;;;;;3.65;61.43;102768.02;1680523;82;25780;-58
2022/10/17 00:56:26;;;;;;;;;;;;;;;3.61;61.98;102771.22;1709158;83;25874;-58
2022/10/17 00:58:54;;;;;;;;;;;;;;;3.58;61.94;102758.87;1712778;82;25748;-58
2022/10/17 01:01:21;;;;;;;;;;;;;;;3.56;62.12;102763.80;1720653;83;27614;-58
2022/10/17 01:03:47;;;;;;;;;;;;;;;3.54;62.08;102766.52;1719689;82;25794;-58
2022/10/17 01:06:14;;;;;;;;;;;;;;;3.49;61.93;102769.77;1694246;84;25768;-58
2022/10/17 01:08:40;;;;;;;;;;;;;;;3.43;62.05;102765.92;1712820;83;25882;-58
2022/10/17 01:11:10;;;;;;;;;;;;;;;3.36;62.17;102766.53;1724559;83;25732;-57
2022/10/17 01:13:40;;;;;;;;;;;;;;;3.33;62.15;102766.63;1703436;82;27625;-57
2022/10/17 01:16:13;;;;;;;;;;;;;;;3.29;62.20;102763.19;1699258;83;25707;-59
2022/10/17 01:18:46;;;;;;;;;;;;;;;3.27;62.27;102768.13;1670316;83;25820;-57
2022/10/17 01:21:22;;;;;;;;;;;;;;;3.27;62.37;102768.13;1659082;86;25878;-57
2022/10/17 01:24:28;;;;;;;;;;;;;;;3.29;62.31;102772.93;1706310;83;25714;-58
2022/10/17 01:27:16;;;;;;;;;;;;;;;3.29;62.49;102764.52;1702866;83;27567;-58
2022/10/17 01:29:58;;;;;;;;;;;;;;;3.29;62.44;102768.50;1707067;83;25957;-58
2022/10/17 01:32:37;;;;;;;;;;;;;;;3.33;62.57;102759.09;1728487;82;25678;-59
2022/10/17 01:35:13;;;;;;;;;;;;;;;3.36;62.91;102760.34;1713246;83;25778;-58
2022/10/17 01:37:44;;;;;;;;;;;;;;;3.34;62.89;102765.72;1674644;82;25714;-58
2022/10/17 01:40:23;;;;;;;;;;;;;;;3.34;63.12;102761.73;1690073;84;27491;-58
2022/10/17 01:43:13;;;;;;;;;;;;;;;3.37;63.18;102766.09;1697221;82;25837;-59
2022/10/17 01:45:44;;;;;;;;;;;;;;;3.42;63.25;102764.17;1708431;82;25812;-58
2022/10/17 01:48:20;;;;;;;;;;;;;;;3.39;62.91;102761.14;1736489;82;25955;-58
2022/10/17 01:50:56;;;;;;;;;;;;;;;3.37;62.92;102757.64;1709153;82;27211;-59
2022/10/17 01:53:29;;;;;;;;;;;;;;;3.31;62.80;102755.15;1696555;82;28008;-58
2022/10/17 01:55:58;;;;;;;;;;;;;;;3.29;62.85;102761.85;1653701;82;25734;-58
2022/10/17 01:58:28;;;;;;;;;;;;;;;3.27;62.69;102752.17;1707464;82;25715;-58
2022/10/17 02:00:58;;;;;;;;;;;;;;;3.23;62.72;102759.33;1707232;82;25789;-58
2022/10/17 02:03:27;;;;;;;;;;;;;;;3.19;62.98;102761.67;1735975;82;26364;-58
2022/10/17 02:05:53;;;;;;;;;;;;;;;3.13;63.02;102765.35;1737087;82;29645;-57
2022/10/17 02:08:30;;;;;;;;;;;;;;;3.09;62.94;102768.98;1734827;81;25689;-58
2022/10/17 02:11:00;;;;;;;;;;;;;;;3.04;62.77;102765.58;1734219;82;25853;-59
2022/10/17 02:13:47;;;;;;;;;;;;;;;3.00;62.60;102769.25;1714306;82;27147;-58
2022/10/17 02:16:49;;;;;;;;;;;;;;;2.95;62.63;102778.66;1730680;82;25968;-58
2022/10/17 02:19:29;;;;;;;;;;;;;;;2.88;62.48;102787.67;1688091;82;27566;-58
2022/10/17 02:22:26;;;;;;;;;;;;;;;2.82;62.44;102795.33;1736684;82;25719;-59
2022/10/17 02:25:08;;;;;;;;;;;;;;;2.78;62.57;102791.48;1688765;83;25774;-57
2022/10/17 02:27:44;;;;;;;;;;;;;;;2.74;62.37;102795.11;1702854;82;25795;-58
2022/10/17 02:30:26;;;;;;;;;;;;;;;2.73;62.71;102800.89;1679853;82;25742;-59
2022/10/17 02:33:12;;;;;;;;;;;;;;;2.74;63.27;102804.41;1673694;82;27698;-58
2022/10/17 02:35:46;;;;;;;;;;;;;;;2.74;63.17;102793.31;1679203;84;25797;-59
2022/10/17 02:38:13;;;;;;;;;;;;;;;2.74;63.10;102798.63;1705894;82;25797;-58
2022/10/17 02:40:44;;;;;;;;;;;;;;;2.76;63.28;102800.80;1712010;82;26605;-59
2022/10/17 02:43:11;;;;;;;;;;;;;;;2.77;63.28;102794.58;1684432;83;25779;-59
2022/10/17 02:45:38;;;;;;;;;;;;;;;2.80;63.96;102798.50;1665776;83;27524;-59
2022/10/17 02:48:17;;;;;;;;;;;;;;;2.82;63.95;102799.31;1671979;83;25770;-58
2022/10/17 02:51:06;;;;;;;;;;;;;;;2.84;63.76;102803.30;1687450;84;25696;-57
2022/10/17 02:54:00;;;;;;;;;;;;;;;2.88;63.93;102809.41;1686809;83;25826;-58
2022/10/17 02:56:28;;;;;;;;;;;;;;;2.89;63.76;102812.02;1717298;83;25732;-58
2022/10/17 02:58:57;;;;;;;;;;;;;;;2.89;63.51;102808.03;1708707;83;27497;-58
2022/10/17 03:01:24;;;;;;;;;;;;;;;2.91;63.75;102805.36;1698363;84;25731;-58
2022/10/17 03:04:05;;;;;;;;;;;;;;;2.90;63.70;102801.81;1699828;83;25689;-58
2022/10/17 03:06:32;;;;;;;;;;;;;;;2.90;63.70;102808.92;1727228;83;25842;-59
2022/10/17 03:08:58;;;;;;;;;;;;;;;2.90;63.44;102808.92;1702022;83;25842;-59
2022/10/17 03:11:24;;;;;;;;;;;;;;;2.79;63.12;102807.38;1671658;85;27716;-58
2022/10/17 03:13:51;;;;;;;;;;;;;;;2.73;63.60;102806.64;1691910;83;25780;-58
2022/10/17 03:16:18;;;;;;;;;;;;;;;2.66;63.15;102804.14;1729091;83;25661;-58
2022/10/17 03:18:45;;;;;;;;;;;;;;;2.59;63.07;102812.27;1728515;83;25829;-59
2022/10/17 03:21:12;;;;;;;;;;;;;;;2.50;62.83;102812.89;1729261;82;26165;-58
2022/10/17 03:23:39;;;;;;;;;;;;;;;2.41;62.87;102811.77;1724422;83;27473;-59
2022/10/17 03:26:06;;;;;;;;;;;;;;;2.34;62.96;102819.45;1678898;83;25684;-57
2022/10/17 03:28:33;;;;;;;;;;;;;;;2.27;62.93;102821.34;1695297;83;25787;-58
2022/10/17 03:31:06;;;;;;;;;;;;;;;2.21;63.09;102821.48;1728992;82;27929;-59
2022/10/17 03:33:32;;;;;;;;;;;;;;;2.17;63.46;102825.09;1727882;83;25724;-59
2022/10/17 03:35:59;;;;;;;;;;;;;;;2.19;63.57;102828.17;1712583;82;28461;-60
2022/10/17 03:38:25;;;;;;;;;;;;;;;2.22;63.63;102836.95;1703761;83;25961;-58
2022/10/17 03:40:55;;;;;;;;;;;;;;;2.23;63.59;102837.38;1691037;84;25674;-60
2022/10/17 03:43:22;;;;;;;;;;;;;;;2.28;63.83;102846.15;1701791;82;26644;-59
2022/10/17 03:45:49;;;;;;;;;;;;;;;2.31;63.87;102849.61;1737271;82;25709;-60
2022/10/17 03:48:15;;;;;;;;;;;;;;;2.35;64.07;102840.66;1716233;82;29605;-59
2022/10/17 03:50:42;;;;;;;;;;;;;;;2.40;64.13;102842.36;1697474;82;26398;-59
2022/10/17 03:53:09;;;;;;;;;;;;;;;2.43;64.30;102840.94;1720764;82;25796;-59
2022/10/17 03:55:37;;;;;;;;;;;;;;;2.49;64.25;102849.67;1717540;82;25804;-58
2022/10/17 03:58:03;;;;;;;;;;;;;;;2.52;64.33;102847.86;1720940;82;25832;-58
2022/10/17 04:00:30;;;;;;;;;;;;;;;2.52;64.44;102840.75;1675943;82;27464;-57
2022/10/17 04:02:58;;;;;;;;;;;;;;;2.53;64.31;102845.62;1724671;82;26526;-59
2022/10/17 04:05:26;;;;;;;;;;;;;;;2.53;64.31;102840.31;1695118;83;25789;-59
2022/10/17 04:07:52;;;;;;;;;;;;;;;2.51;64.12;102844.31;1705727;82;25776;-59
2022/10/17 04:10:21;;;;;;;;;;;;;;;2.50;64.05;102846.11;1729028;82;25558;-59
2022/10/17 04:12:47;;;;;;;;;;;;;;;2.44;63.88;102846.24;1710971;82;28406;-59
2022/10/17 04:15:14;;;;;;;;;;;;;;;2.36;63.64;102844.20;1733148;82;25917;-58
2022/10/17 04:17:40;;;;;;;;;;;;;;;2.31;63.72;102843.41;1715478;82;26024;-59
2022/10/17 04:20:08;;;;;;;;;;;;;;;2.23;63.42;102845.34;1679329;84;25803;-59
2022/10/17 04:22:34;;;;;;;;;;;;;;;2.15;63.59;102847.70;1689762;82;25897;-58
2022/10/17 04:25:01;;;;;;;;;;;;;;;2.09;63.43;102844.29;1719611;82;27553;-58
2022/10/17 04:27:29;;;;;;;;;;;;;;;2.02;63.93;102843.53;1722208;82;25798;-59
2022/10/17 04:29:56;;;;;;;;;;;;;;;2.00;64.15;102834.74;1703042;82;25743;-58
2022/10/17 04:32:24;;;;;;;;;;;;;;;2.01;64.39;102838.69;1720266;82;25859;-58
2022/10/17 04:34:53;;;;;;;;;;;;;;;2.02;64.48;102839.55;1714294;82;25732;-57
2022/10/17 04:37:21;;;;;;;;;;;;;;;2.03;64.49;102845.28;1692978;82;28438;-59
2022/10/17 04:39:49;;;;;;;;;;;;;;;1.99;64.53;102849.77;1703091;83;25743;-58
2022/10/17 04:42:16;;;;;;;;;;;;;;;1.99;64.51;102854.23;1700320;84;25767;-58
2022/10/17 04:44:43;;;;;;;;;;;;;;;2.01;64.66;102855.08;1727720;83;25796;-57
2022/10/17 04:47:10;;;;;;;;;;;;;;;2.03;64.58;102861.20;1729598;82;25706;-58
2022/10/17 04:49:38;;;;;;;;;;;;;;;2.08;64.69;102859.80;1676559;83;27546;-58
2022/10/17 04:52:09;;;;;;;;;;;;;;;2.11;64.63;102865.05;1685202;83;25800;-57
2022/10/17 04:54:37;;;;;;;;;;;;;;;2.12;64.56;102872.12;1684125;83;25698;-58
2022/10/17 04:57:06;;;;;;;;;;;;;;;2.16;64.78;102875.13;1695306;84;25733;-58
2022/10/17 04:59:33;;;;;;;;;;;;;;;2.19;64.83;102881.28;1681165;83;25774;-58
2022/10/17 05:02:14;;;;;;;;;;;;;;;2.24;65.01;102882.48;1690623;84;27558;-58
2022/10/17 05:04:41;;;;;;;;;;;;;;;2.27;64.84;102873.61;1703623;83;25749;-58
2022/10/17 05:07:08;;;;;;;;;;;;;;;2.27;64.77;102878.92;1714699;82;25789;-58
2022/10/17 05:09:42;;;;;;;;;;;;;;;2.29;64.80;102881.06;1694115;84;25863;-58
2022/10/17 05:12:09;;;;;;;;;;;;;;;2.31;64.77;102888.13;1689191;84;25687;-59
2022/10/17 05:14:37;;;;;;;;;;;;;;;2.31;64.57;102889.89;1700349;83;28366;-58
2022/10/17 05:17:04;;;;;;;;;;;;;;;2.28;64.81;102893.48;1709746;83;25965;-57
2022/10/17 05:19:31;;;;;;;;;;;;;;;2.27;64.99;102897.05;1725113;83;25744;-58
2022/10/17 05:21:58;;;;;;;;;;;;;;;2.31;64.88;102901.84;1727576;83;28015;-58
2022/10/17 05:24:25;;;;;;;;;;;;;;;2.33;64.69;102899.56;1715120;83;25785;-57
2022/10/17 05:26:51;;;;;;;;;;;;;;;2.38;64.84;102888.85;1671996;83;27521;-58
2022/10/17 05:29:18;;;;;;;;;;;;;;;2.43;65.15;102900.72;1694432;83;25823;-59
2022/10/17 05:31:47;;;;;;;;;;;;;;;2.49;65.32;102894.83;1726478;82;25690;-58
2022/10/17 05:34:13;;;;;;;;;;;;;;;2.54;65.44;102896.53;1726132;83;25813;-58
2022/10/17 05:36:41;;;;;;;;;;;;;;;2.60;65.50;102897.26;1714240;82;25972;-57
2022/10/17 05:39:12;;;;;;;;;;;;;;;2.65;65.48;102902.05;1670857;83;27506;-59
2022/10/17 05:41:40;;;;;;;;;;;;;;;2.73;65.52;102905.88;1697288;84;25763;-59
2022/10/17 05:44:07;;;;;;;;;;;;;;;2.79;65.46;102895.54;1718367;82;25772;-58
2022/10/17 05:46:36;;;;;;;;;;;;;;;2.92;65.43;102898.80;1714155;82;26467;-59
2022/10/17 05:49:02;;;;;;;;;;;;;;;3.04;65.60;102899.88;1700693;82;25766;-60
2022/10/17 05:51:29;;;;;;;;;;;;;;;3.14;65.18;102903.18;1701731;82;27498;-58
2022/10/17 05:53:55;;;;;;;;;;;;;;;3.16;64.80;102901.37;1702317;82;25745;-58
2022/10/17 05:56:23;;;;;;;;;;;;;;;3.22;64.83;102899.92;1701546;83;25718;-58
2022/10/17 05:58:51;;;;;;;;;;;;;;;3.27;64.73;102907.32;1700249;82;26579;-58
2022/10/17 06:01:23;;;;;;;;;;;;;;;3.31;64.49;102908.12;1700925;82;25783;-58
2022/10/17 06:03:50;;;;;;;;;;;;;;;3.35;64.36;102908.92;1699257;84;27510;-58
2022/10/17 06:06:18;;;;;;;;;;;;;;;3.39;64.13;102910.14;1699617;82;27343;-60
2022/10/17 06:08:46;;;;;;;;;;;;;;;3.44;64.14;102920.67;1716622;82;25815;-57
2022/10/17 06:11:14;;;;;;;;;;;;;;;3.48;64.04;102917.48;1735010;81;25822;-58
2022/10/17 06:13:41;;;;;;;;;;;;;;;3.49;63.99;102916.13;1724541;82;25444;-57
2022/10/17 06:16:12;;;;;;;;;;;;;;;3.51;64.07;102912.09;1701933;82;27523;-58
2022/10/17 06:18:39;;;;;;;;;;;;;;;3.53;64.13;102919.13;1709366;82;25714;-58
2022/10/17 06:21:08;;;;;;;;;;;;;;;3.56;64.57;102922.16;1732517;82;25530;-58
2022/10/17 06:23:36;;;;;;;;;;;;;;;3.58;64.38;102918.56;1682123;82;25822;-59
2022/10/17 06:26:13;;;;;;;;;;;;;;;3.65;64.58;102922.41;1679922;82;25748;-60
2022/10/17 06:28:40;;;;;;;;;;;;;;;3.71;64.65;102921.80;1712597;82;28527;-59
2022/10/17 06:31:09;;;;;;;;;;;;;;;3.78;64.66;102919.83;1735369;82;25693;-60
2022/10/17 06:33:36;;;;;;;;;;;;;;;3.87;65.09;102925.39;1715671;82;25763;-58
2022/10/17 06:36:06;;;;;;;;;;;;;;;3.93;65.12;102928.36;1679618;82;25823;-59
2022/10/17 06:38:34;;;;;;;;;;;;;;;4.02;65.65;102927.65;1662849;84;26569;-59
2022/10/17 06:41:07;;;;;;;;;;;;;;;4.10;65.46;102929.23;1706369;82;28183;-58
2022/10/17 06:43:35;;;;;;;;;;;;;;;4.18;65.57;102935.22;1695728;82;25714;-58
2022/10/17 06:46:20;;;;;;;;;;;;;;;4.27;65.41;102934.97;1687175;82;25771;-59
2022/10/17 06:48:52;;;;;;;;;;;;;;;4.38;65.59;102936.89;1697817;82;27963;-59
2022/10/17 06:51:20;;;;;;;;;;;;;;;4.49;65.85;102941.05;1701219;82;25684;-59
2022/10/17 06:53:49;;;;;;;;;;;;;;;4.60;65.54;102947.41;1689322;82;28248;-58
2022/10/17 06:56:26;;;;;;;;;;;;;;;4.69;65.69;102945.37;1683699;83;25785;-58
2022/10/17 06:59:01;;;;;;;;;;;;;;;4.81;65.48;102944.58;1707299;83;25760;-58
2022/10/17 07:01:33;;;;;;;;;;;;;;;4.92;65.81;102941.61;1728221;83;25897;-58
2022/10/17 07:04:00;;;;;;;;;;;;;;;5.04;65.73;102943.03;1723539;82;25698;-59
2022/10/17 07:06:28;;;;;;;;;;;;;;;5.17;65.79;102941.27;1722166;82;27530;-58
2022/10/17 07:08:56;;;;;;;;;;;;;;;5.31;66.03;102942.18;1732810;82;25839;-58
2022/10/17 07:11:24;;;;;;;;;;;;;;;5.46;66.08;102940.82;1689884;82;26312;-58
2022/10/17 07:13:52;;;;;;;;;;;;;;;5.62;66.26;102946.98;1716392;82;25968;-58
2022/10/17 07:16:21;;;;;;;;;;;;;;;5.80;66.09;102945.05;1705038;83;25702;-59
2022/10/17 07:18:51;;;;;;;;;;;;;;;5.95;65.94;102944.10;1708453;82;27550;-59
2022/10/17 07:21:18;;;;;;;;;;;;;;;6.17;66.02;102946.08;1716772;81;25808;-57
2022/10/17 07:23:44;;;;;;;;;;;;;;;6.37;65.60;102949.37;1705686;82;25812;-58
2022/10/17 07:26:14;;;;;;;;;;;;;;;6.55;65.45;102951.83;1707878;83;25896;-58
2022/10/17 07:28:43;;;;;;;;;;;;;;;6.70;65.23;102940.58;1685313;82;25434;-57
2022/10/17 07:31:22;;;;;;;;;;;;;;;6.94;64.79;102948.59;1677121;85;27543;-58
2022/10/17 07:33:50;;;;;;;;;;;;;;;7.13;64.11;102947.88;1679220;84;25885;-59
2022/10/17 07:36:17;;;;;;;;;;;;;;;7.32;63.50;102954.27;1694970;82;25717;-58
2022/10/17 07:38:44;;;;;;;;;;;;;;;7.51;63.24;102959.73;1679845;82;25843;-59
2022/10/17 07:41:12;;;;;;;;;;;;;;;7.71;62.75;102955.37;1687937;83;25712;-59
2022/10/17 07:43:40;;;;;;;;;;;;;;;7.93;62.58;102957.16;1714994;83;27618;-59
2022/10/17 07:46:10;;;;;;;;;;;;;;;8.12;62.26;102953.22;1698886;83;25918;-59
2022/10/17 07:48:38;;;;;;;;;;;;;;;8.29;62.17;102950.67;1699503;83;25763;-59
2022/10/17 07:51:08;;;;;;;;;;;;;;;8.52;61.87;102951.95;1682970;83;26065;-59
2022/10/17 07:53:36;;;;;;;;;;;;;;;8.71;61.44;102951.52;1713836;83;25800;-58
2022/10/17 07:56:08;;;;;;;;;;;;;;;8.92;61.45;102941.61;1671375;85;27660;-59
2022/10/17 07:58:36;;;;;;;;;;;;;;;9.17;61.17;102952.52;1690903;83;25754;-59
2022/10/17 08:01:04;;;;;;;;;;;;;;;9.40;60.85;102943.34;1723765;83;25833;-58
2022/10/17 08:03:31;;;;;;;;;;;;;;;9.63;60.12;102942.70;1716341;83;25901;-59
2022/10/17 08:05:59;;;;;;;;;;;;;;;9.85;59.37;102939.80;1688376;83;25818;-58
2022/10/17 08:08:26;;;;;;;;;;;;;;;10.07;59.17;102938.67;1686810;83;27625;-57
2022/10/17 08:10:53;;;;;;;;;;;;;;;10.28;57.99;102938.02;1700276;83;25895;-58
2022/10/17 08:13:21;;;;;;;;;;;;;;;10.48;57.47;102935.67;1701755;83;25797;-58
2022/10/17 08:15:48;;;;;;;;;;;;;;;10.72;57.12;102934.39;1673878;83;25775;-58
2022/10/17 08:18:16;;;;;;;;;;;;;;;10.94;57.00;102932.27;1697186;83;25791;-58
2022/10/17 08:20:43;;;;;;;;;;;;;;;11.23;56.19;102935.16;1727784;83;27550;-59
2022/10/17 08:23:10;;;;;;;;;;;;;;;11.52;55.83;102942.02;1725058;83;25763;-58
2022/10/17 08:25:39;;;;;;;;;;;;;;;11.78;54.85;102938.77;1700778;83;25755;-58
2022/10/17 08:28:06;;;;;;;;;;;;;;;12.04;54.18;102938.11;1686266;83;26569;-58
2022/10/17 08:30:33;;;;;;;;;;;;;;;12.31;53.97;102927.08;1677671;83;25751;-59
2022/10/17 08:32:59;;;;;;;;;;;;;;;12.60;52.73;102936.05;1724075;83;28362;-58
2022/10/17 08:35:26;;;;;;;;;;;;;;;12.87;52.44;102925.81;1691797;83;25766;-58
2022/10/17 08:37:52;;;;;;;;;;;;;;;13.18;51.95;102927.02;1671772;84;25802;-59
2022/10/17 08:40:29;;;;;;;;;;;;;;;13.51;51.55;102922.59;1683332;84;26022;-59
2022/10/17 08:43:09;;;;;;;;;;;;;;;13.87;49.98;102927.84;1699956;83;25831;-59
2022/10/17 08:45:39;;;;;;;;;;;;;;;14.27;49.14;102923.31;1699495;84;27467;-59
2022/10/17 08:48:09;;;;;;;;;;;;;;;14.63;46.41;102931.16;1699385;82;25842;-59
2022/10/17 08:50:54;;;;;;;;;;;;;;;14.94;46.21;102928.48;1688279;83;25807;-59
2022/10/17 08:53:42;;;;;;;;;;;;;;;15.28;45.88;102929.20;1673571;83;25743;-58
2022/10/17 08:56:21;;;;;;;;;;;;;;;15.68;43.12;102924.84;1684160;83;25776;-59
2022/10/17 08:58:47;;;;;;;;;;;;;;;16.06;43.28;102926.46;1691888;83;27699;-58
2022/10/17 09:01:26;;;;;;;;;;;;;;;16.74;41.91;102932.45;1693836;84;25891;-59
2022/10/17 09:04:17;;;;;;;;;;;;;;;17.53;40.53;102930.97;1692316;84;25750;-59
2022/10/17 09:06:47;;;;;;;;;;;;;;;18.56;39.40;102930.41;1692403;83;25808;-59
2022/10/17 09:09:24;;;;;;;;;;;;;;;19.59;38.29;102934.34;1694682;83;27013;-59
2022/10/17 09:12:06;;;;;;;;;;;;;;;20.42;37.07;102933.33;1690371;83;27444;-60
2022/10/17 09:14:51;;;;;;;;;;;;;;;21.15;36.55;102931.70;1694166;84;25781;-59
2022/10/17 09:17:50;;;;;;;;;;;;;;;21.83;34.80;102937.69;1693238;84;25786;-60
2022/10/17 09:20:20;;;;;;;;;;;;;;;22.62;34.43;102933.62;1696968;83;26753;-60
2022/10/17 09:23:11;;;;;;;;;;;;;;;23.28;32.44;102925.63;1695026;84;26431;-59
2022/10/17 09:25:46;;;;;;;;;;;;;;;23.79;31.49;102931.53;1691927;84;27420;-59
2022/10/17 09:28:25;;;;;;;;;;;;;;;24.56;31.67;102927.47;1692067;84;25836;-59
2022/10/17 09:31:04;;;;;;;;;;;;;;;25.07;29.20;102923.82;1687236;84;25811;-59
2022/10/17 09:33:39;;;;;;;;;;;;;;;25.29;27.05;102919.88;1692343;84;25919;-58
2022/10/17 09:36:09;;;;;;;;;;;;;;;25.92;27.98;102925.27;1692306;84;25694;-59
2022/10/17 09:38:42;;;;;;;;;;;;;;;26.52;26.98;102912.95;1693012;84;27467;-59
2022/10/17 09:41:18;;;;;;;;;;;;;;;26.67;25.44;102906.04;1695526;84;25752;-59
2022/10/17 09:43:46;;;;;;;;;;;;;;;26.86;26.33;102910.12;1694660;82;25505;-62
2022/10/17 09:46:32;;;;;;;;;;;;;;;27.29;25.26;102910.71;1722849;82;26541;-58
2022/10/17 09:49:05;;;;;;;;;;;;;;;27.40;24.71;102905.18;1711795;82;25916;-59
2022/10/17 09:51:31;;;;;;;;;;;;;;;27.57;24.11;102909.92;1716536;82;27530;-59
2022/10/17 09:54:04;;;;;;;;;;;;;;;27.88;24.31;102905.41;1740421;81;25648;-59
2022/10/17 09:56:30;;;;;;;;;;;;;;;28.27;23.84;102901.78;1739945;82;25774;-60
2022/10/17 09:58:57;;;;;;;;;;;;;;;28.61;23.39;102908.86;1694010;83;25937;-58
2022/10/17 10:01:29;;;;;;;;;;;;;;;29.04;22.85;102901.72;1681891;84;25737;-60
2022/10/17 10:04:14;;;;;;;;;;;;;;;29.10;21.37;102895.84;1682086;85;27609;-59
2022/10/17 10:06:43;;;;;;;;;;;;;;;29.58;22.65;102890.73;1705550;84;25737;-60
2022/10/17 10:09:24;;;;;;;;;;;;;;;29.96;22.86;102890.08;1707259;84;25450;-59
2022/10/17 10:11:53;;;;;;;;;;;;;;;30.12;20.73;102890.17;1709157;84;26773;-59
2022/10/17 10:14:28;;;;;;;;;;;;;;;30.15;18.79;102874.48;1710839;83;26119;-60
2022/10/17 10:16:55;;;;;;;;;;;;;;;30.55;19.62;102876.30;1709670;84;29651;-59
2022/10/17 10:19:36;;;;;;;;;;;;;;;31.05;20.34;102884.78;1710985;84;25741;-59
2022/10/17 10:22:06;;;;;;;;;;;;;;;31.40;19.76;102879.34;1708486;84;26675;-59
2022/10/17 10:24:32;;;;;;;;;;;;;;;31.56;19.81;102868.17;1708572;84;25869;-60
2022/10/17 10:27:01;;;;;;;;;;;;;;;31.81;19.47;102863.17;1709810;83;25838;-59
2022/10/17 10:29:34;;;;;;;;;;;;;;;31.89;18.45;102863.40;1707294;83;27698;-60
2022/10/17 10:32:13;;;;;;;;;;;;;;;32.19;19.04;102868.22;1712605;82;25802;-59
2022/10/17 10:34:43;;;;;;;;;;;;;;;32.27;17.27;102863.77;1709669;84;25742;-59
2022/10/17 10:37:24;;;;;;;;;;;;;;;32.52;18.35;102861.41;1708522;83;28052;-59
2022/10/17 10:39:59;;;;;;;;;;;;;;;32.48;17.82;102854.08;1708636;83;25734;-59
2022/10/17 10:42:32;;;;;;;;;;;;;;;32.66;17.50;102857.39;1703100;84;27500;-60
2022/10/17 10:45:22;;;;;;;;;;;;;;;32.84;17.56;102845.91;1702765;84;25714;-60
2022/10/17 10:47:51;;;;;;;;;;;;;;;33.10;17.44;102844.64;1703299;83;25809;-61
2022/10/17 10:50:24;;;;;;;;;;;;;;;33.57;17.14;102833.27;1701314;82;25752;-60
2022/10/17 10:53:01;;;;;;;;;;;;;;;33.53;15.94;102828.16;1709194;82;25752;-59
2022/10/17 10:55:30;;;;;;;;;;;;;;;33.52;16.59;102822.31;1701616;84;27546;-60
2022/10/17 10:58:00;;;;;;;;;;;;;;;33.39;15.21;102824.80;1708226;83;25875;-60
2022/10/17 11:00:28;;;;;;;;;;;;;;;33.35;16.54;102829.70;1699921;82;25502;-61
2022/10/17 11:03:17;;;;;;;;;;;;;;;33.58;15.60;102835.80;1705324;84;25785;-59
2022/10/17 11:06:05;;;;;;;;;;;;;;;33.88;15.97;102830.67;1681732;84;26668;-60
2022/10/17 11:08:49;;;;;;;;;;;;;;;33.66;16.14;102829.02;1705451;84;27732;-59
2022/10/17 11:11:28;;;;;;;;;;;;;;;33.77;16.32;102823.13;1713420;81;25734;-60
2022/10/17 11:14:01;;;;;;;;;;;;;;;33.94;16.36;102826.06;1731809;82;25721;-60
2022/10/17 11:16:39;;;;;;;;;;;;;;;33.94;16.16;102825.50;1737696;82;25870;-59
2022/10/17 11:19:31;;;;;;;;;;;;;;;33.79;16.20;102823.73;1740022;82;25725;-60
2022/10/17 11:22:21;;;;;;;;;;;;;;;33.47;15.91;102825.52;1733573;82;27531;-61
2022/10/17 11:24:55;;;;;;;;;;;;;;;32.99;16.45;102829.59;1706786;83;25741;-59
2022/10/17 11:27:27;;;;;;;;;;;;;;;32.60;16.56;102836.02;1710667;83;25763;-59
2022/10/17 11:29:54;;;;;;;;;;;;;;;31.96;16.67;102823.84;1711001;83;25873;-59
2022/10/17 11:32:27;;;;;;;;;;;;;;;31.63;17.07;102827.78;1709125;84;26271;-60
2022/10/17 11:35:09;;;;;;;;;;;;;;;31.37;16.94;102821.39;1710823;83;27478;-59
2022/10/17 11:37:42;;;;;;;;;;;;;;;31.11;16.14;102828.03;1703060;82;25968;-59
2022/10/17 11:40:28;;;;;;;;;;;;;;;30.40;16.96;102820.45;1710176;83;25662;-60
2022/10/17 11:43:02;;;;;;;;;;;;;;;30.08;16.62;102821.77;1699766;84;26632;-60
2022/10/17 11:45:32;;;;;;;;;;;;;;;29.50;17.89;102818.31;1681360;82;25772;-61
2022/10/17 11:48:05;;;;;;;;;;;;;;;29.27;17.99;102822.32;1710074;84;27591;-59
2022/10/17 11:50:34;;;;;;;;;;;;;;;28.76;18.03;102817.36;1707286;83;25771;-59
2022/10/17 11:53:04;;;;;;;;;;;;;;;28.45;18.57;102819.57;1713994;82;25800;-60
2022/10/17 11:55:33;;;;;;;;;;;;;;;28.40;18.71;102818.80;1740146;82;25946;-59
2022/10/17 11:58:09;;;;;;;;;;;;;;;28.35;18.95;102816.33;1739239;82;25700;-60
2022/10/17 12:00:42;;;;;;;;;;;;;;;28.26;18.67;102815.67;1736607;82;27413;-59
2022/10/17 12:03:27;;;;;;;;;;;;;;;28.15;18.92;102813.48;1740051;82;25775;-60
2022/10/17 12:06:03;;;;;;;;;;;;;;;28.17;18.74;102808.59;1740229;82;25693;-60
2022/10/17 12:08:42;;;;;;;;;;;;;;;28.00;18.47;102812.19;1739951;82;25861;-60
2022/10/17 12:11:37;;;;;;;;;;;;;;;27.86;18.36;102808.48;1740394;82;26223;-60
2022/10/17 12:14:25;;;;;;;;;;;;;;;27.91;18.73;102805.98;1681552;85;27538;-60
2022/10/17 12:16:52;;;;;;;;;;;;;;;27.97;18.12;102799.63;1697055;82;26220;-60
2022/10/17 12:19:22;;;;;;;;;;;;;;;28.05;18.17;102804.98;1732659;82;25791;-60
2022/10/17 12:22:04;;;;;;;;;;;;;;;28.21;18.00;102796.91;1740374;82;26016;-60
2022/10/17 12:24:34;;;;;;;;;;;;;;;28.52;17.57;102797.45;1739960;82;25752;-59
2022/10/17 12:27:23;;;;;;;;;;;;;;;28.69;17.76;102800.17;1740133;82;27542;-60
2022/10/17 12:29:49;;;;;;;;;;;;;;;29.13;17.47;102797.06;1685264;82;25706;-59
2022/10/17 12:32:16;;;;;;;;;;;;;;;29.74;17.69;102796.52;1656852;85;25724;-59
2022/10/17 12:34:54;;;;;;;;;;;;;;;30.44;17.43;102787.02;1681925;84;25936;-59
2022/10/17 12:37:43;;;;;;;;;;;;;;;31.19;16.86;102789.67;1681615;85;25804;-60
2022/10/17 12:40:36;;;;;;;;;;;;;;;32.05;16.39;102785.41;1689678;84;27643;-60
2022/10/17 12:43:18;;;;;;;;;;;;;;;32.67;15.44;102784.38;1714557;82;25780;-59
2022/10/17 12:45:53;;;;;;;;;;;;;;;33.33;14.83;102785.30;1736347;82;25777;-59
2022/10/17 12:48:39;;;;;;;;;;;;;;;33.91;14.25;102774.36;1740230;82;25860;-60
2022/10/17 12:51:11;;;;;;;;;;;;;;;34.33;13.48;102781.08;1719855;82;25622;-60
2022/10/17 12:53:47;;;;;;;;;;;;;;;34.46;13.66;102767.95;1738586;82;27681;-60
2022/10/17 12:56:16;;;;;;;;;;;;;;;34.99;13.37;102770.02;1739369;82;26127;-60
2022/10/17 12:58:45;;;;;;;;;;;;;;;35.61;13.28;102774.36;1712900;82;25661;-60
2022/10/17 13:01:17;;;;;;;;;;;;;;;36.29;12.85;102769.36;1740168;82;25830;-60
2022/10/17 13:03:46;;;;;;;;;;;;;;;36.97;12.13;102765.30;1740165;82;25772;-60
2022/10/17 13:06:22;;;;;;;;;;;;;;;37.49;11.74;102752.47;1737677;82;27499;-61
2022/10/17 13:08:52;;;;;;;;;;;;;;;37.83;11.94;102760.52;1694465;82;26029;-61